sensor_id;sensor_type;location;lat;lon;timestamp;P1;durP1;ratioP1;P2;durP2;ratioP2
76591;SDS011;65481;47.600;19.682;2023-09-19T00:01:35;4.05;;;3.20;;
76591;SDS011;65481;47.600;19.682;2023-09-19T00:06:36;3.53;;;2.90;;
76591;SDS011;65481;47.600;19.682;2023-09-19T00:11:37;4.28;;;2.75;;
76591;SDS011;65481;47.600;19.682;2023-09-19T00:16:41;4.20;;;3.10;;
76591;SDS011;65481;47.600;19.682;2023-09-19T00:21:42;4.03;;;2.83;;
76591;SDS011;65481;47.600;19.682;2023-09-19T00:26:43;5.72;;;2.40;;
76591;SDS011;65481;47.600;19.682;2023-09-19T00:31:43;5.53;;;2.63;;
76591;SDS011;65481;47.600;19.682;2023-09-19T00:36:44;4.30;;;2.75;;
76591;SDS011;65481;47.600;19.682;2023-09-19T00:41:45;3.92;;;2.60;;
76591;SDS011;65481;47.600;19.682;2023-09-19T00:46:45;3.90;;;2.70;;
76591;SDS011;65481;47.600;19.682;2023-09-19T00:51:49;9.98;;;2.70;;
76591;SDS011;65481;47.600;19.682;2023-09-19T00:56:49;4.57;;;3.03;;
76591;SDS011;65481;47.600;19.682;2023-09-19T01:01:51;4.68;;;3.10;;
76591;SDS011;65481;47.600;19.682;2023-09-19T01:06:54;5.03;;;3.28;;
76591;SDS011;65481;47.600;19.682;2023-09-19T01:11:57;4.55;;;3.30;;
76591;SDS011;65481;47.600;19.682;2023-09-19T01:17:38;5.80;;;3.10;;
76591;SDS011;65481;47.600;19.682;2023-09-19T01:28:14;4.15;;;3.28;;
76591;SDS011;65481;47.600;19.682;2023-09-19T01:33:22;5.05;;;2.90;;
76591;SDS011;65481;47.600;19.682;2023-09-19T01:38:23;3.97;;;2.78;;
76591;SDS011;65481;47.600;19.682;2023-09-19T01:43:27;4.18;;;2.92;;
76591;SDS011;65481;47.600;19.682;2023-09-19T01:54:24;4.72;;;2.75;;
76591;SDS011;65481;47.600;19.682;2023-09-19T01:59:10;6.65;;;3.15;;
76591;SDS011;65481;47.600;19.682;2023-09-19T02:04:14;5.13;;;3.03;;
76591;SDS011;65481;47.600;19.682;2023-09-19T02:09:15;6.53;;;3.28;;
76591;SDS011;65481;47.600;19.682;2023-09-19T02:14:15;6.47;;;3.25;;
76591;SDS011;65481;47.600;19.682;2023-09-19T02:19:16;6.32;;;2.90;;
76591;SDS011;65481;47.600;19.682;2023-09-19T02:24:17;5.13;;;3.25;;
76591;SDS011;65481;47.600;19.682;2023-09-19T02:29:19;5.75;;;3.22;;
76591;SDS011;65481;47.600;19.682;2023-09-19T02:34:19;4.75;;;3.47;;
76591;SDS011;65481;47.600;19.682;2023-09-19T02:39:20;5.88;;;2.97;;
76591;SDS011;65481;47.600;19.682;2023-09-19T02:44:20;4.03;;;2.88;;
76591;SDS011;65481;47.600;19.682;2023-09-19T02:49:21;5.85;;;3.40;;
76591;SDS011;65481;47.600;19.682;2023-09-19T02:54:21;4.00;;;3.03;;
76591;SDS011;65481;47.600;19.682;2023-09-19T02:59:23;4.78;;;3.08;;
76591;SDS011;65481;47.600;19.682;2023-09-19T03:04:25;5.05;;;2.80;;
76591;SDS011;65481;47.600;19.682;2023-09-19T03:09:26;4.68;;;3.30;;
76591;SDS011;65481;47.600;19.682;2023-09-19T03:14:27;3.92;;;3.00;;
76591;SDS011;65481;47.600;19.682;2023-09-19T03:19:30;4.90;;;3.13;;
76591;SDS011;65481;47.600;19.682;2023-09-19T03:24:33;5.68;;;3.05;;
76591;SDS011;65481;47.600;19.682;2023-09-19T03:29:35;6.22;;;3.47;;
76591;SDS011;65481;47.600;19.682;2023-09-19T03:34:37;4.60;;;3.28;;
76591;SDS011;65481;47.600;19.682;2023-09-19T03:39:43;4.90;;;3.20;;
76591;SDS011;65481;47.600;19.682;2023-09-19T03:44:44;5.50;;;3.40;;
76591;SDS011;65481;47.600;19.682;2023-09-19T03:49:44;5.03;;;3.53;;
76591;SDS011;65481;47.600;19.682;2023-09-19T03:54:45;5.03;;;3.25;;
76591;SDS011;65481;47.600;19.682;2023-09-19T03:59:45;5.28;;;3.92;;
76591;SDS011;65481;47.600;19.682;2023-09-19T04:04:46;7.47;;;3.38;;
76591;SDS011;65481;47.600;19.682;2023-09-19T04:09:47;7.20;;;3.83;;
76591;SDS011;65481;47.600;19.682;2023-09-19T04:14:49;6.20;;;3.55;;
76591;SDS011;65481;47.600;19.682;2023-09-19T04:19:50;5.13;;;3.35;;
76591;SDS011;65481;47.600;19.682;2023-09-19T04:24:50;5.72;;;3.85;;
76591;SDS011;65481;47.600;19.682;2023-09-19T04:29:51;5.80;;;3.78;;
76591;SDS011;65481;47.600;19.682;2023-09-19T04:34:53;5.68;;;3.40;;
76591;SDS011;65481;47.600;19.682;2023-09-19T04:39:54;5.50;;;3.22;;
76591;SDS011;65481;47.600;19.682;2023-09-19T04:44:54;7.55;;;3.78;;
76591;SDS011;65481;47.600;19.682;2023-09-19T04:49:55;5.90;;;3.28;;
76591;SDS011;65481;47.600;19.682;2023-09-19T04:54:58;11.85;;;5.03;;
76591;SDS011;65481;47.600;19.682;2023-09-19T04:59:59;6.78;;;3.92;;
76591;SDS011;65481;47.600;19.682;2023-09-19T05:04:59;8.20;;;4.03;;
76591;SDS011;65481;47.600;19.682;2023-09-19T05:10:00;6.43;;;3.88;;
76591;SDS011;65481;47.600;19.682;2023-09-19T05:15:05;6.32;;;3.90;;
76591;SDS011;65481;47.600;19.682;2023-09-19T05:20:10;5.35;;;3.92;;
76591;SDS011;65481;47.600;19.682;2023-09-19T05:25:17;5.82;;;3.95;;
76591;SDS011;65481;47.600;19.682;2023-09-19T05:30:18;6.07;;;3.92;;
76591;SDS011;65481;47.600;19.682;2023-09-19T05:35:20;10.05;;;3.78;;
76591;SDS011;65481;47.600;19.682;2023-09-19T05:40:24;6.53;;;4.15;;
76591;SDS011;65481;47.600;19.682;2023-09-19T05:45:26;6.40;;;3.90;;
76591;SDS011;65481;47.600;19.682;2023-09-19T05:50:27;5.57;;;3.75;;
76591;SDS011;65481;47.600;19.682;2023-09-19T05:55:28;5.70;;;4.18;;
76591;SDS011;65481;47.600;19.682;2023-09-19T06:00:28;6.03;;;4.13;;
76591;SDS011;65481;47.600;19.682;2023-09-19T06:05:29;9.93;;;3.88;;
76591;SDS011;65481;47.600;19.682;2023-09-19T06:10:33;4.95;;;3.35;;
76591;SDS011;65481;47.600;19.682;2023-09-19T06:15:35;6.43;;;4.22;;
76591;SDS011;65481;47.600;19.682;2023-09-19T06:20:36;5.70;;;3.22;;
76591;SDS011;65481;47.600;19.682;2023-09-19T06:25:36;3.10;;;1.75;;
76591;SDS011;65481;47.600;19.682;2023-09-19T06:30:37;2.55;;;0.75;;
76591;SDS011;65481;47.600;19.682;2023-09-19T06:35:40;2.03;;;0.77;;
76591;SDS011;65481;47.600;19.682;2023-09-19T06:40:41;4.28;;;0.70;;
76591;SDS011;65481;47.600;19.682;2023-09-19T06:45:42;0.65;;;0.50;;
76591;SDS011;65481;47.600;19.682;2023-09-19T06:50:43;1.42;;;0.57;;
76591;SDS011;65481;47.600;19.682;2023-09-19T06:55:44;0.98;;;0.70;;
76591;SDS011;65481;47.600;19.682;2023-09-19T07:00:45;1.33;;;0.70;;
76591;SDS011;65481;47.600;19.682;2023-09-19T07:05:47;0.77;;;0.70;;
76591;SDS011;65481;47.600;19.682;2023-09-19T07:10:48;1.13;;;0.55;;
76591;SDS011;65481;47.600;19.682;2023-09-19T07:15:49;0.68;;;0.60;;
76591;SDS011;65481;47.600;19.682;2023-09-19T07:20:50;1.13;;;0.52;;
76591;SDS011;65481;47.600;19.682;2023-09-19T07:25:50;0.85;;;0.57;;
76591;SDS011;65481;47.600;19.682;2023-09-19T07:30:51;0.30;;;0.30;;
76591;SDS011;65481;47.600;19.682;2023-09-19T07:35:52;0.55;;;0.30;;
76591;SDS011;65481;47.600;19.682;2023-09-19T07:40:53;0.80;;;0.45;;
76591;SDS011;65481;47.600;19.682;2023-09-19T07:45:53;0.90;;;0.40;;
76591;SDS011;65481;47.600;19.682;2023-09-19T07:50:54;3.60;;;0.80;;
76591;SDS011;65481;47.600;19.682;2023-09-19T07:56:01;0.52;;;0.52;;
76591;SDS011;65481;47.600;19.682;2023-09-19T08:01:04;0.45;;;0.40;;
76591;SDS011;65481;47.600;19.682;2023-09-19T08:06:08;0.60;;;0.50;;
76591;SDS011;65481;47.600;19.682;2023-09-19T08:11:08;0.70;;;0.70;;
76591;SDS011;65481;47.600;19.682;2023-09-19T08:16:12;0.60;;;0.40;;
76591;SDS011;65481;47.600;19.682;2023-09-19T08:21:15;1.48;;;0.43;;
76591;SDS011;65481;47.600;19.682;2023-09-19T08:26:15;0.77;;;0.30;;
76591;SDS011;65481;47.600;19.682;2023-09-19T08:31:17;0.75;;;0.50;;
76591;SDS011;65481;47.600;19.682;2023-09-19T08:36:17;0.50;;;0.40;;
76591;SDS011;65481;47.600;19.682;2023-09-19T08:41:18;0.40;;;0.30;;
76591;SDS011;65481;47.600;19.682;2023-09-19T08:46:18;0.30;;;0.30;;
76591;SDS011;65481;47.600;19.682;2023-09-19T08:51:27;0.50;;;0.43;;
76591;SDS011;65481;47.600;19.682;2023-09-19T08:56:33;0.30;;;0.30;;
76591;SDS011;65481;47.600;19.682;2023-09-19T09:01:35;0.73;;;0.55;;
76591;SDS011;65481;47.600;19.682;2023-09-19T09:06:35;1.05;;;0.75;;
76591;SDS011;65481;47.600;19.682;2023-09-19T09:11:37;0.80;;;0.60;;
76591;SDS011;65481;47.600;19.682;2023-09-19T09:16:39;0.63;;;0.50;;
76591;SDS011;65481;47.600;19.682;2023-09-19T09:21:40;0.60;;;0.47;;
76591;SDS011;65481;47.600;19.682;2023-09-19T09:26:41;0.93;;;0.60;;
76591;SDS011;65481;47.600;19.682;2023-09-19T09:31:45;1.35;;;0.60;;
76591;SDS011;65481;47.600;19.682;2023-09-19T09:36:45;0.60;;;0.57;;
76591;SDS011;65481;47.600;19.682;2023-09-19T09:41:48;0.90;;;0.50;;
76591;SDS011;65481;47.600;19.682;2023-09-19T09:46:49;1.30;;;0.68;;
76591;SDS011;65481;47.600;19.682;2023-09-19T09:51:50;0.63;;;0.40;;
76591;SDS011;65481;47.600;19.682;2023-09-19T09:57:01;0.60;;;0.50;;
76591;SDS011;65481;47.600;19.682;2023-09-19T10:02:26;0.80;;;0.60;;
76591;SDS011;65481;47.600;19.682;2023-09-19T10:07:32;2.28;;;0.70;;
76591;SDS011;65481;47.600;19.682;2023-09-19T10:12:37;0.75;;;0.47;;
76591;SDS011;65481;47.600;19.682;2023-09-19T10:17:42;0.85;;;0.55;;
76591;SDS011;65481;47.600;19.682;2023-09-19T10:22:45;0.95;;;0.63;;
76591;SDS011;65481;47.600;19.682;2023-09-19T10:27:59;0.70;;;0.50;;
76591;SDS011;65481;47.600;19.682;2023-09-19T10:33:04;0.70;;;0.60;;
76591;SDS011;65481;47.600;19.682;2023-09-19T10:38:12;0.98;;;0.57;;
76591;SDS011;65481;47.600;19.682;2023-09-19T10:43:17;0.90;;;0.77;;
76591;SDS011;65481;47.600;19.682;2023-09-19T10:48:19;2.08;;;0.70;;
76591;SDS011;65481;47.600;19.682;2023-09-19T10:58:27;1.50;;;0.70;;
76591;SDS011;65481;47.600;19.682;2023-09-19T11:03:29;0.90;;;0.70;;
76591;SDS011;65481;47.600;19.682;2023-09-19T11:14:30;1.05;;;0.95;;
76591;SDS011;65481;47.600;19.682;2023-09-19T11:19:24;0.85;;;0.60;;
76591;SDS011;65481;47.600;19.682;2023-09-19T11:30:32;1.00;;;0.70;;
76591;SDS011;65481;47.600;19.682;2023-09-19T11:46:22;1.02;;;0.60;;
76591;SDS011;65481;47.600;19.682;2023-09-19T11:51:24;1.23;;;0.73;;
76591;SDS011;65481;47.600;19.682;2023-09-19T11:56:28;1.50;;;0.50;;
76591;SDS011;65481;47.600;19.682;2023-09-19T12:01:32;0.77;;;0.60;;
76591;SDS011;65481;47.600;19.682;2023-09-19T12:06:34;0.82;;;0.80;;
76591;SDS011;65481;47.600;19.682;2023-09-19T12:11:44;1.00;;;0.80;;
76591;SDS011;65481;47.600;19.682;2023-09-19T12:16:50;1.60;;;0.73;;
76591;SDS011;65481;47.600;19.682;2023-09-19T12:21:57;0.85;;;0.60;;
76591;SDS011;65481;47.600;19.682;2023-09-19T12:27:00;0.70;;;0.60;;
76591;SDS011;65481;47.600;19.682;2023-09-19T12:32:04;0.52;;;0.52;;
76591;SDS011;65481;47.600;19.682;2023-09-19T12:37:10;1.15;;;1.08;;
76591;SDS011;65481;47.600;19.682;2023-09-19T12:42:29;0.65;;;0.65;;
76591;SDS011;65481;47.600;19.682;2023-09-19T12:47:35;0.68;;;0.55;;
76591;SDS011;65481;47.600;19.682;2023-09-19T12:52:39;1.67;;;0.88;;
76591;SDS011;65481;47.600;19.682;2023-09-19T12:57:41;1.08;;;0.60;;
76591;SDS011;65481;47.600;19.682;2023-09-19T13:03:09;1.00;;;0.70;;
76591;SDS011;65481;47.600;19.682;2023-09-19T13:08:19;1.05;;;0.75;;
76591;SDS011;65481;47.600;19.682;2023-09-19T13:13:27;0.98;;;0.65;;
76591;SDS011;65481;47.600;19.682;2023-09-19T13:18:28;1.52;;;0.80;;
76591;SDS011;65481;47.600;19.682;2023-09-19T13:23:29;0.65;;;0.50;;
76591;SDS011;65481;47.600;19.682;2023-09-19T13:28:31;0.77;;;0.55;;
76591;SDS011;65481;47.600;19.682;2023-09-19T13:33:33;0.95;;;0.70;;
76591;SDS011;65481;47.600;19.682;2023-09-19T13:38:35;2.42;;;0.80;;
76591;SDS011;65481;47.600;19.682;2023-09-19T13:43:39;2.22;;;0.70;;
76591;SDS011;65481;47.600;19.682;2023-09-19T13:48:39;2.28;;;1.13;;
76591;SDS011;65481;47.600;19.682;2023-09-19T13:53:40;1.10;;;0.85;;
76591;SDS011;65481;47.600;19.682;2023-09-19T13:58:40;0.90;;;0.70;;
76591;SDS011;65481;47.600;19.682;2023-09-19T14:03:42;1.40;;;1.00;;
76591;SDS011;65481;47.600;19.682;2023-09-19T14:08:47;1.02;;;0.70;;
76591;SDS011;65481;47.600;19.682;2023-09-19T14:13:48;2.85;;;1.00;;
76591;SDS011;65481;47.600;19.682;2023-09-19T14:18:49;2.38;;;0.93;;
76591;SDS011;65481;47.600;19.682;2023-09-19T14:23:49;2.30;;;0.90;;
76591;SDS011;65481;47.600;19.682;2023-09-19T14:28:50;1.63;;;1.20;;
76591;SDS011;65481;47.600;19.682;2023-09-19T14:33:57;1.42;;;1.00;;
76591;SDS011;65481;47.600;19.682;2023-09-19T14:38:59;1.55;;;1.40;;
76591;SDS011;65481;47.600;19.682;2023-09-19T14:44:01;2.20;;;1.02;;
76591;SDS011;65481;47.600;19.682;2023-09-19T14:49:03;2.38;;;1.00;;
76591;SDS011;65481;47.600;19.682;2023-09-19T14:54:05;2.90;;;1.20;;
76591;SDS011;65481;47.600;19.682;2023-09-19T14:59:07;2.88;;;1.10;;
76591;SDS011;65481;47.600;19.682;2023-09-19T15:04:10;1.20;;;0.80;;
76591;SDS011;65481;47.600;19.682;2023-09-19T15:09:11;1.55;;;0.70;;
76591;SDS011;65481;47.600;19.682;2023-09-19T15:14:12;1.38;;;0.95;;
76591;SDS011;65481;47.600;19.682;2023-09-19T15:19:14;1.30;;;1.00;;
76591;SDS011;65481;47.600;19.682;2023-09-19T15:24:15;2.30;;;0.90;;
76591;SDS011;65481;47.600;19.682;2023-09-19T15:29:17;1.13;;;0.95;;
76591;SDS011;65481;47.600;19.682;2023-09-19T15:34:18;1.45;;;0.90;;
76591;SDS011;65481;47.600;19.682;2023-09-19T15:39:18;1.00;;;0.80;;
76591;SDS011;65481;47.600;19.682;2023-09-19T15:44:22;2.22;;;1.10;;
76591;SDS011;65481;47.600;19.682;2023-09-19T15:49:24;1.25;;;1.00;;
76591;SDS011;65481;47.600;19.682;2023-09-19T15:54:25;1.35;;;1.00;;
76591;SDS011;65481;47.600;19.682;2023-09-19T15:59:27;0.98;;;0.73;;
76591;SDS011;65481;47.600;19.682;2023-09-19T16:04:30;1.05;;;0.80;;
76591;SDS011;65481;47.600;19.682;2023-09-19T16:09:31;1.27;;;1.00;;
76591;SDS011;65481;47.600;19.682;2023-09-19T16:14:31;1.00;;;0.73;;
76591;SDS011;65481;47.600;19.682;2023-09-19T16:19:33;1.10;;;0.90;;
76591;SDS011;65481;47.600;19.682;2023-09-19T16:24:34;2.47;;;1.50;;
76591;SDS011;65481;47.600;19.682;2023-09-19T16:29:34;1.60;;;1.00;;
76591;SDS011;65481;47.600;19.682;2023-09-19T16:34:35;0.98;;;0.70;;
76591;SDS011;65481;47.600;19.682;2023-09-19T16:39:35;2.97;;;1.10;;
76591;SDS011;65481;47.600;19.682;2023-09-19T16:44:36;1.85;;;1.10;;
76591;SDS011;65481;47.600;19.682;2023-09-19T16:49:37;1.15;;;0.85;;
76591;SDS011;65481;47.600;19.682;2023-09-19T16:54:38;6.20;;;1.30;;
76591;SDS011;65481;47.600;19.682;2023-09-19T16:59:39;4.35;;;1.20;;
76591;SDS011;65481;47.600;19.682;2023-09-19T17:04:41;3.13;;;1.30;;
76591;SDS011;65481;47.600;19.682;2023-09-19T17:09:42;2.17;;;1.10;;
76591;SDS011;65481;47.600;19.682;2023-09-19T17:14:43;1.42;;;1.30;;
76591;SDS011;65481;47.600;19.682;2023-09-19T17:19:45;2.08;;;1.10;;
76591;SDS011;65481;47.600;19.682;2023-09-19T17:24:45;1.42;;;1.05;;
76591;SDS011;65481;47.600;19.682;2023-09-19T17:29:47;1.20;;;0.90;;
76591;SDS011;65481;47.600;19.682;2023-09-19T17:34:49;1.55;;;1.10;;
76591;SDS011;65481;47.600;19.682;2023-09-19T17:39:50;2.05;;;1.40;;
76591;SDS011;65481;47.600;19.682;2023-09-19T17:44:53;2.78;;;1.10;;
76591;SDS011;65481;47.600;19.682;2023-09-19T17:49:54;2.20;;;1.23;;
76591;SDS011;65481;47.600;19.682;2023-09-19T17:54:55;2.22;;;1.27;;
76591;SDS011;65481;47.600;19.682;2023-09-19T17:59:58;1.55;;;1.13;;
76591;SDS011;65481;47.600;19.682;2023-09-19T18:05:01;1.63;;;1.25;;
76591;SDS011;65481;47.600;19.682;2023-09-19T18:10:02;1.73;;;1.33;;
76591;SDS011;65481;47.600;19.682;2023-09-19T18:20:09;1.45;;;1.02;;
76591;SDS011;65481;47.600;19.682;2023-09-19T18:25:11;1.30;;;1.20;;
76591;SDS011;65481;47.600;19.682;2023-09-19T18:30:14;1.20;;;0.88;;
76591;SDS011;65481;47.600;19.682;2023-09-19T18:35:16;2.65;;;1.25;;
76591;SDS011;65481;47.600;19.682;2023-09-19T18:40:17;1.30;;;1.10;;
76591;SDS011;65481;47.600;19.682;2023-09-19T18:45:18;3.03;;;1.20;;
76591;SDS011;65481;47.600;19.682;2023-09-19T18:50:23;1.73;;;1.10;;
76591;SDS011;65481;47.600;19.682;2023-09-19T18:55:24;2.85;;;1.08;;
76591;SDS011;65481;47.600;19.682;2023-09-19T19:00:25;3.67;;;1.25;;
76591;SDS011;65481;47.600;19.682;2023-09-19T19:05:30;2.28;;;1.00;;
76591;SDS011;65481;47.600;19.682;2023-09-19T19:10:38;1.70;;;1.10;;
76591;SDS011;65481;47.600;19.682;2023-09-19T19:15:41;2.67;;;1.23;;
76591;SDS011;65481;47.600;19.682;2023-09-19T19:20:44;1.15;;;0.93;;
76591;SDS011;65481;47.600;19.682;2023-09-19T19:25:46;2.22;;;1.20;;
76591;SDS011;65481;47.600;19.682;2023-09-19T19:30:48;1.50;;;1.10;;
76591;SDS011;65481;47.600;19.682;2023-09-19T19:35:51;1.30;;;1.05;;
76591;SDS011;65481;47.600;19.682;2023-09-19T19:40:58;3.55;;;1.40;;
76591;SDS011;65481;47.600;19.682;2023-09-19T19:46:00;1.88;;;1.30;;
76591;SDS011;65481;47.600;19.682;2023-09-19T19:51:07;1.85;;;1.25;;
76591;SDS011;65481;47.600;19.682;2023-09-19T19:56:10;2.53;;;1.37;;
76591;SDS011;65481;47.600;19.682;2023-09-19T20:01:12;2.63;;;1.27;;
76591;SDS011;65481;47.600;19.682;2023-09-19T20:06:13;2.55;;;1.33;;
76591;SDS011;65481;47.600;19.682;2023-09-19T20:11:18;1.92;;;1.40;;
76591;SDS011;65481;47.600;19.682;2023-09-19T20:16:19;2.40;;;1.77;;
76591;SDS011;65481;47.600;19.682;2023-09-19T20:21:20;2.25;;;1.65;;
76591;SDS011;65481;47.600;19.682;2023-09-19T20:26:25;2.97;;;1.90;;
76591;SDS011;65481;47.600;19.682;2023-09-19T20:31:26;2.42;;;1.58;;
76591;SDS011;65481;47.600;19.682;2023-09-19T20:36:27;2.08;;;1.50;;
76591;SDS011;65481;47.600;19.682;2023-09-19T20:41:29;2.38;;;1.55;;
76591;SDS011;65481;47.600;19.682;2023-09-19T20:46:30;2.58;;;1.60;;
76591;SDS011;65481;47.600;19.682;2023-09-19T20:51:31;3.03;;;1.58;;
76591;SDS011;65481;47.600;19.682;2023-09-19T20:56:35;4.10;;;1.50;;
76591;SDS011;65481;47.600;19.682;2023-09-19T21:01:35;1.63;;;1.25;;
76591;SDS011;65481;47.600;19.682;2023-09-19T21:06:36;2.85;;;1.50;;
76591;SDS011;65481;47.600;19.682;2023-09-19T21:11:36;1.88;;;1.20;;
76591;SDS011;65481;47.600;19.682;2023-09-19T21:16:37;3.05;;;1.58;;
76591;SDS011;65481;47.600;19.682;2023-09-19T21:21:38;1.65;;;1.30;;
76591;SDS011;65481;47.600;19.682;2023-09-19T21:26:38;4.13;;;1.75;;
76591;SDS011;65481;47.600;19.682;2023-09-19T21:31:39;2.03;;;1.50;;
76591;SDS011;65481;47.600;19.682;2023-09-19T21:36:40;2.47;;;1.45;;
76591;SDS011;65481;47.600;19.682;2023-09-19T21:41:41;2.75;;;1.67;;
76591;SDS011;65481;47.600;19.682;2023-09-19T21:46:42;1.58;;;1.33;;
76591;SDS011;65481;47.600;19.682;2023-09-19T21:51:42;2.70;;;1.58;;
76591;SDS011;65481;47.600;19.682;2023-09-19T21:56:43;3.03;;;2.00;;
76591;SDS011;65481;47.600;19.682;2023-09-19T22:01:43;3.13;;;1.80;;
76591;SDS011;65481;47.600;19.682;2023-09-19T22:06:44;3.40;;;2.03;;
76591;SDS011;65481;47.600;19.682;2023-09-19T22:11:44;3.58;;;1.90;;
76591;SDS011;65481;47.600;19.682;2023-09-19T22:16:45;3.50;;;1.73;;
76591;SDS011;65481;47.600;19.682;2023-09-19T22:21:47;2.90;;;1.92;;
76591;SDS011;65481;47.600;19.682;2023-09-19T22:26:50;2.00;;;1.30;;
76591;SDS011;65481;47.600;19.682;2023-09-19T22:31:51;2.30;;;1.80;;
76591;SDS011;65481;47.600;19.682;2023-09-19T22:36:51;2.47;;;1.70;;
76591;SDS011;65481;47.600;19.682;2023-09-19T22:41:54;3.03;;;1.80;;
76591;SDS011;65481;47.600;19.682;2023-09-19T22:47:04;2.38;;;2.05;;
76591;SDS011;65481;47.600;19.682;2023-09-19T22:52:05;2.33;;;1.90;;
76591;SDS011;65481;47.600;19.682;2023-09-19T22:57:08;2.25;;;1.88;;
76591;SDS011;65481;47.600;19.682;2023-09-19T23:02:11;3.60;;;1.73;;
76591;SDS011;65481;47.600;19.682;2023-09-19T23:07:13;1.98;;;1.33;;
76591;SDS011;65481;47.600;19.682;2023-09-19T23:12:14;2.20;;;1.52;;
76591;SDS011;65481;47.600;19.682;2023-09-19T23:17:19;2.42;;;1.63;;
76591;SDS011;65481;47.600;19.682;2023-09-19T23:22:23;5.15;;;1.90;;
76591;SDS011;65481;47.600;19.682;2023-09-19T23:27:25;2.45;;;1.60;;
76591;SDS011;65481;47.600;19.682;2023-09-19T23:32:27;1.95;;;1.40;;
76591;SDS011;65481;47.600;19.682;2023-09-19T23:37:27;3.45;;;1.80;;
76591;SDS011;65481;47.600;19.682;2023-09-19T23:42:29;1.85;;;1.38;;
76591;SDS011;65481;47.600;19.682;2023-09-19T23:47:30;2.60;;;1.65;;
76591;SDS011;65481;47.600;19.682;2023-09-19T23:52:31;2.78;;;1.40;;
76591;SDS011;65481;47.600;19.682;2023-09-19T23:57:31;2.90;;;1.67;;
